sensor_id;sensor_type;location;lat;lon;timestamp;pressure;altitude;pressure_sealevel;temperature;humidity
20160;BME280;50187;50.492;12.134;2023-05-19T00:00:56;98377.94;;;18.24;40.14
20160;BME280;50187;50.492;12.134;2023-05-19T00:03:24;98381.59;;;18.23;39.99
20160;BME280;50187;50.492;12.134;2023-05-19T00:05:53;98383.47;;;18.23;39.90
20160;BME280;50187;50.492;12.134;2023-05-19T00:08:22;98384.31;;;18.23;39.98
20160;BME280;50187;50.492;12.134;2023-05-19T00:10:50;98376.63;;;18.18;40.25
20160;BME280;50187;50.492;12.134;2023-05-19T00:13:16;98375.50;;;18.21;40.30
20160;BME280;50187;50.492;12.134;2023-05-19T00:15:43;98369.28;;;18.21;39.99
20160;BME280;50187;50.492;12.134;2023-05-19T00:18:10;98370.13;;;18.21;40.03
20160;BME280;50187;50.492;12.134;2023-05-19T00:20:39;98369.28;;;18.21;40.05
20160;BME280;50187;50.492;12.134;2023-05-19T00:23:06;98357.44;;;18.12;40.34
20160;BME280;50187;50.492;12.134;2023-05-19T00:25:33;98365.84;;;18.18;40.30
20160;BME280;50187;50.492;12.134;2023-05-19T00:27:59;98357.78;;;18.18;40.11
20160;BME280;50187;50.492;12.134;2023-05-19T00:30:28;98356.06;;;18.17;40.23
20160;BME280;50187;50.492;12.134;2023-05-19T00:32:55;98356.06;;;18.17;40.24
20160;BME280;50187;50.492;12.134;2023-05-19T00:35:23;98357.06;;;18.16;40.30
20160;BME280;50187;50.492;12.134;2023-05-19T00:37:49;98360.59;;;18.17;40.30
20160;BME280;50187;50.492;12.134;2023-05-19T00:40:17;98357.06;;;18.16;40.39
20160;BME280;50187;50.492;12.134;2023-05-19T00:42:44;98354.50;;;18.15;40.34
20160;BME280;50187;50.492;12.134;2023-05-19T00:45:10;98355.34;;;18.15;40.39
20160;BME280;50187;50.492;12.134;2023-05-19T00:47:38;98358.03;;;18.15;40.31
20160;BME280;50187;50.492;12.134;2023-05-19T00:50:05;98362.81;;;18.12;40.33
20160;BME280;50187;50.492;12.134;2023-05-19T00:52:32;98342.84;;;18.14;40.52
20160;BME280;50187;50.492;12.134;2023-05-19T00:54:59;98346.53;;;18.13;40.32
20160;BME280;50187;50.492;12.134;2023-05-19T00:57:26;98337.13;;;18.08;40.27
20160;BME280;50187;50.492;12.134;2023-05-19T00:59:53;98331.66;;;18.09;40.30
20160;BME280;50187;50.492;12.134;2023-05-19T01:02:20;98337.28;;;18.06;40.32
20160;BME280;50187;50.492;12.134;2023-05-19T01:04:49;98333.88;;;18.04;40.35
20160;BME280;50187;50.492;12.134;2023-05-19T01:07:16;98355.63;;;18.12;40.29
20160;BME280;50187;50.492;12.134;2023-05-19T01:09:44;98348.50;;;18.11;40.45
20160;BME280;50187;50.492;12.134;2023-05-19T01:12:12;98350.22;;;18.12;40.44
20160;BME280;50187;50.492;12.134;2023-05-19T01:14:38;98302.09;;;17.98;40.70
20160;BME280;50187;50.492;12.134;2023-05-19T01:17:28;98338.84;;;18.09;40.41
20160;BME280;50187;50.492;12.134;2023-05-19T01:20:11;98330.78;;;18.09;40.51
20160;BME280;50187;50.492;12.134;2023-05-19T01:23:11;98332.34;;;18.11;40.38
20160;BME280;50187;50.492;12.134;2023-05-19T01:26:08;98334.44;;;18.08;40.59
20160;BME280;50187;50.492;12.134;2023-05-19T01:31:23;98339.81;;;18.08;40.61
20160;BME280;50187;50.492;12.134;2023-05-19T01:33:52;98342.78;;;18.05;40.57
20160;BME280;50187;50.492;12.134;2023-05-19T01:36:21;98327.94;;;18.10;40.65
20160;BME280;50187;50.492;12.134;2023-05-19T01:38:51;98339.72;;;18.09;40.40
20160;BME280;50187;50.492;12.134;2023-05-19T01:41:19;98338.84;;;18.09;40.56
20160;BME280;50187;50.492;12.134;2023-05-19T01:43:48;98342.53;;;18.08;40.69
20160;BME280;50187;50.492;12.134;2023-05-19T01:46:15;98350.03;;;18.04;40.53
20160;BME280;50187;50.492;12.134;2023-05-19T01:48:43;98339.81;;;18.08;40.67
20160;BME280;50187;50.492;12.134;2023-05-19T01:51:12;98336.56;;;18.04;40.54
20160;BME280;50187;50.492;12.134;2023-05-19T01:53:41;98322.88;;;17.96;40.54
20160;BME280;50187;50.492;12.134;2023-05-19T01:56:07;98333.88;;;18.04;40.58
20160;BME280;50187;50.492;12.134;2023-05-19T01:58:46;98323.81;;;18.06;40.51
20160;BME280;50187;50.492;12.134;2023-05-19T02:09:25;98334.41;;;17.98;40.77
20160;BME280;50187;50.492;12.134;2023-05-19T02:17:37;98333.72;;;18.06;40.56
20160;BME280;50187;50.492;12.134;2023-05-19T02:20:07;98331.88;;;18.06;40.87
20160;BME280;50187;50.492;12.134;2023-05-19T02:22:35;98329.06;;;18.08;40.53
20160;BME280;50187;50.492;12.134;2023-05-19T02:25:01;98329.47;;;18.03;40.61
20160;BME280;50187;50.492;12.134;2023-05-19T02:27:31;98324.59;;;17.97;40.55
20160;BME280;50187;50.492;12.134;2023-05-19T02:29:58;98319.66;;;18.02;40.67
20160;BME280;50187;50.492;12.134;2023-05-19T02:32:25;98309.03;;;18.00;40.68
20160;BME280;50187;50.492;12.134;2023-05-19T02:34:52;98318.25;;;17.98;40.70
20160;BME280;50187;50.492;12.134;2023-05-19T02:37:21;98317.25;;;17.99;40.66
20160;BME280;50187;50.492;12.134;2023-05-19T02:39:54;98321.78;;;17.98;40.85
20160;BME280;50187;50.492;12.134;2023-05-19T02:42:20;98314.28;;;18.02;40.76
20160;BME280;50187;50.492;12.134;2023-05-19T02:44:47;98315.16;;;18.02;40.51
20160;BME280;50187;50.492;12.134;2023-05-19T02:47:14;98328.75;;;18.01;40.61
20160;BME280;50187;50.492;12.134;2023-05-19T02:49:41;98331.44;;;18.01;40.79
20160;BME280;50187;50.492;12.134;2023-05-19T02:52:09;98336.81;;;18.01;40.86
20160;BME280;50187;50.492;12.134;2023-05-19T02:54:37;98328.13;;;17.97;40.78
20160;BME280;50187;50.492;12.134;2023-05-19T02:57:04;98329.00;;;17.98;40.71
20160;BME280;50187;50.492;12.134;2023-05-19T02:59:32;98319.66;;;18.02;40.62
20160;BME280;50187;50.492;12.134;2023-05-19T03:01:59;98312.47;;;18.02;40.70
20160;BME280;50187;50.492;12.134;2023-05-19T03:04:27;98318.81;;;18.01;40.54
20160;BME280;50187;50.492;12.134;2023-05-19T03:06:54;98294.53;;;17.92;40.75
20160;BME280;50187;50.492;12.134;2023-05-19T03:09:21;98310.16;;;17.98;40.72
20160;BME280;50187;50.492;12.134;2023-05-19T03:11:48;98313.72;;;17.98;40.67
20160;BME280;50187;50.492;12.134;2023-05-19T03:14:14;98320.94;;;17.98;40.77
20160;BME280;50187;50.492;12.134;2023-05-19T03:16:41;98312.13;;;17.96;40.72
20160;BME280;50187;50.492;12.134;2023-05-19T03:19:08;98334.28;;;17.99;40.73
20160;BME280;50187;50.492;12.134;2023-05-19T03:21:35;98325.59;;;17.96;40.88
20160;BME280;50187;50.492;12.134;2023-05-19T03:24:02;98323.88;;;17.95;40.80
20160;BME280;50187;50.492;12.134;2023-05-19T03:26:28;98333.66;;;17.96;40.56
20160;BME280;50187;50.492;12.134;2023-05-19T03:28:55;98323.88;;;17.95;40.67
20160;BME280;50187;50.492;12.134;2023-05-19T03:31:22;98333.41;;;17.99;40.72
20160;BME280;50187;50.492;12.134;2023-05-19T03:33:49;98333.66;;;17.96;40.74
20160;BME280;50187;50.492;12.134;2023-05-19T03:36:16;98334.28;;;17.99;40.58
20160;BME280;50187;50.492;12.134;2023-05-19T03:38:43;98325.44;;;17.97;40.72
20160;BME280;50187;50.492;12.134;2023-05-19T03:41:09;98316.66;;;17.95;40.72
20160;BME280;50187;50.492;12.134;2023-05-19T03:43:36;98355.72;;;17.78;40.88
20160;BME280;50187;50.492;12.134;2023-05-19T03:46:05;98338.19;;;17.95;40.64
20160;BME280;50187;50.492;12.134;2023-05-19T03:48:54;98346.53;;;17.92;40.62
20160;BME280;50187;50.492;12.134;2023-05-19T03:51:39;98331.09;;;17.94;40.70
20160;BME280;50187;50.492;12.134;2023-05-19T03:54:21;98337.31;;;17.95;40.91
20160;BME280;50187;50.492;12.134;2023-05-19T03:56:49;98359.47;;;17.98;40.81
20160;BME280;50187;50.492;12.134;2023-05-19T03:59:16;98344.28;;;17.97;40.67
20160;BME280;50187;50.492;12.134;2023-05-19T04:01:42;98345.91;;;17.89;40.88
20160;BME280;50187;50.492;12.134;2023-05-19T04:04:09;98350.78;;;17.95;40.80
20160;BME280;50187;50.492;12.134;2023-05-19T04:06:36;98351.53;;;17.97;40.53
20160;BME280;50187;50.492;12.134;2023-05-19T04:09:10;98349.69;;;17.97;40.55
20160;BME280;50187;50.492;12.134;2023-05-19T04:11:39;98353.25;;;17.98;40.63
20160;BME280;50187;50.492;12.134;2023-05-19T04:14:06;98340.91;;;17.84;40.78
20160;BME280;50187;50.492;12.134;2023-05-19T04:16:33;98357.03;;;17.95;40.54
20160;BME280;50187;50.492;12.134;2023-05-19T04:19:01;98359.72;;;17.95;40.69
20160;BME280;50187;50.492;12.134;2023-05-19T04:21:28;98352.91;;;17.91;40.89
20160;BME280;50187;50.492;12.134;2023-05-19T04:23:54;98357.16;;;17.94;40.74
20160;BME280;50187;50.492;12.134;2023-05-19T04:26:21;98352.75;;;17.93;40.79
20160;BME280;50187;50.492;12.134;2023-05-19T04:28:50;98348.22;;;17.93;40.76
20160;BME280;50187;50.492;12.134;2023-05-19T04:31:17;98362.28;;;17.97;40.72
20160;BME280;50187;50.492;12.134;2023-05-19T04:33:43;98340.66;;;17.87;40.84
20160;BME280;50187;50.492;12.134;2023-05-19T04:36:10;98353.22;;;17.86;40.90
20160;BME280;50187;50.492;12.134;2023-05-19T04:38:40;98369.75;;;17.93;40.65
20160;BME280;50187;50.492;12.134;2023-05-19T04:41:09;98361.81;;;17.92;40.76
20160;BME280;50187;50.492;12.134;2023-05-19T04:43:38;98358.00;;;17.94;40.60
20160;BME280;50187;50.492;12.134;2023-05-19T04:46:11;98358.00;;;17.94;40.76
20160;BME280;50187;50.492;12.134;2023-05-19T04:48:41;98372.31;;;17.95;40.88
20160;BME280;50187;50.492;12.134;2023-05-19T04:51:08;98359.13;;;17.92;40.82
20160;BME280;50187;50.492;12.134;2023-05-19T04:53:34;98370.50;;;17.95;41.06
20160;BME280;50187;50.492;12.134;2023-05-19T04:56:04;98364.38;;;17.93;40.82
20160;BME280;50187;50.492;12.134;2023-05-19T04:58:31;98346.16;;;17.85;40.63
20160;BME280;50187;50.492;12.134;2023-05-19T05:00:58;98374.66;;;17.88;40.81
20160;BME280;50187;50.492;12.134;2023-05-19T05:03:27;98362.78;;;17.91;40.75
20160;BME280;50187;50.492;12.134;2023-05-19T05:05:54;98366.69;;;17.86;40.86
20160;BME280;50187;50.492;12.134;2023-05-19T05:08:22;98365.47;;;17.91;40.88
20160;BME280;50187;50.492;12.134;2023-05-19T05:10:49;98372.59;;;17.92;40.98
20160;BME280;50187;50.492;12.134;2023-05-19T05:13:20;98347.53;;;17.80;40.92
20160;BME280;50187;50.492;12.134;2023-05-19T05:15:48;98363.91;;;17.88;41.03
20160;BME280;50187;50.492;12.134;2023-05-19T05:18:15;98353.75;;;17.92;40.87
20160;BME280;50187;50.492;12.134;2023-05-19T05:20:42;98369.16;;;17.90;40.80
20160;BME280;50187;50.492;12.134;2023-05-19T05:23:10;98354.47;;;17.94;40.71
20160;BME280;50187;50.492;12.134;2023-05-19T05:25:42;98368.16;;;17.91;40.86
20160;BME280;50187;50.492;12.134;2023-05-19T05:28:10;98360.84;;;17.93;41.07
20160;BME280;50187;50.492;12.134;2023-05-19T05:30:36;98364.59;;;17.90;40.89
20160;BME280;50187;50.492;12.134;2023-05-19T05:33:05;98364.59;;;17.90;40.85
20160;BME280;50187;50.492;12.134;2023-05-19T05:35:40;98353.75;;;17.92;40.90
20160;BME280;50187;50.492;12.134;2023-05-19T05:38:09;98351.91;;;17.81;40.92
20160;BME280;50187;50.492;12.134;2023-05-19T05:40:37;98353.13;;;17.88;40.92
20160;BME280;50187;50.492;12.134;2023-05-19T05:43:04;98335.88;;;17.91;40.89
20160;BME280;50187;50.492;12.134;2023-05-19T05:45:35;98340.03;;;17.83;41.07
20160;BME280;50187;50.492;12.134;2023-05-19T05:48:02;98339.78;;;17.86;40.85
20160;BME280;50187;50.492;12.134;2023-05-19T05:50:30;98334.53;;;17.85;41.01
20160;BME280;50187;50.492;12.134;2023-05-19T05:53:00;98336.34;;;17.96;40.78
20160;BME280;50187;50.492;12.134;2023-05-19T05:55:27;98328.78;;;17.90;40.81
20160;BME280;50187;50.492;12.134;2023-05-19T05:57:54;98344.44;;;17.96;40.80
20160;BME280;50187;50.492;12.134;2023-05-19T06:00:22;98331.94;;;17.95;40.83
20160;BME280;50187;50.492;12.134;2023-05-19T06:02:51;98335.50;;;17.95;40.91
20160;BME280;50187;50.492;12.134;2023-05-19T06:05:18;98343.19;;;18.00;40.68
20160;BME280;50187;50.492;12.134;2023-05-19T06:07:46;98312.53;;;17.91;40.92
20160;BME280;50187;50.492;12.134;2023-05-19T06:10:18;98337.19;;;17.96;40.79
20160;BME280;50187;50.492;12.134;2023-05-19T06:12:46;98330.69;;;17.99;40.84
20160;BME280;50187;50.492;12.134;2023-05-19T06:15:14;98333.41;;;17.99;40.98
20160;BME280;50187;50.492;12.134;2023-05-19T06:17:49;98334.28;;;17.99;40.84
20160;BME280;50187;50.492;12.134;2023-05-19T06:20:17;98320.81;;;17.99;40.91
20160;BME280;50187;50.492;12.134;2023-05-19T06:22:44;98322.06;;;17.95;40.93
20160;BME280;50187;50.492;12.134;2023-05-19T06:25:12;98327.63;;;18.04;40.88
20160;BME280;50187;50.492;12.134;2023-05-19T06:27:40;98321.38;;;18.03;40.92
20160;BME280;50187;50.492;12.134;2023-05-19T06:30:07;98313.44;;;18.01;41.02
20160;BME280;50187;50.492;12.134;2023-05-19T06:32:43;98324.69;;;18.07;40.90
20160;BME280;50187;50.492;12.134;2023-05-19T06:35:12;98324.22;;;18.01;40.82
20160;BME280;50187;50.492;12.134;2023-05-19T06:37:38;98333.59;;;18.07;40.94
20160;BME280;50187;50.492;12.134;2023-05-19T06:40:06;98340.22;;;18.03;41.04
20160;BME280;50187;50.492;12.134;2023-05-19T06:42:35;98296.38;;;17.91;40.96
20160;BME280;50187;50.492;12.134;2023-05-19T06:45:13;98328.97;;;18.09;40.92
20160;BME280;50187;50.492;12.134;2023-05-19T06:47:39;98318.91;;;18.11;40.74
20160;BME280;50187;50.492;12.134;2023-05-19T06:50:08;98328.09;;;18.09;40.90
20160;BME280;50187;50.492;12.134;2023-05-19T06:52:38;98330.63;;;18.10;40.86
20160;BME280;50187;50.492;12.134;2023-05-19T06:55:05;98305.97;;;18.05;40.88
20160;BME280;50187;50.492;12.134;2023-05-19T06:57:32;98334.91;;;18.13;40.72
20160;BME280;50187;50.492;12.134;2023-05-19T07:00:00;98307.16;;;18.12;40.85
20160;BME280;50187;50.492;12.134;2023-05-19T07:02:26;98316.69;;;18.16;40.63
20160;BME280;50187;50.492;12.134;2023-05-19T07:04:53;98310.56;;;18.14;40.88
20160;BME280;50187;50.492;12.134;2023-05-19T07:07:21;98317.78;;;18.14;40.69
20160;BME280;50187;50.492;12.134;2023-05-19T07:09:49;98307.00;;;18.14;40.59
20160;BME280;50187;50.492;12.134;2023-05-19T07:12:16;98315.81;;;18.16;40.63
20160;BME280;50187;50.492;12.134;2023-05-19T07:14:44;98307.00;;;18.14;40.70
20160;BME280;50187;50.492;12.134;2023-05-19T07:17:11;98320.22;;;18.17;40.61
20160;BME280;50187;50.492;12.134;2023-05-19T07:19:42;98309.16;;;18.20;40.58
20160;BME280;50187;50.492;12.134;2023-05-19T07:22:08;98305.16;;;18.14;40.59
20160;BME280;50187;50.492;12.134;2023-05-19T07:24:35;98307.59;;;18.17;40.34
20160;BME280;50187;50.492;12.134;2023-05-19T07:27:02;98320.69;;;18.22;40.59
20160;BME280;50187;50.492;12.134;2023-05-19T07:29:28;98323.50;;;18.21;40.63
20160;BME280;50187;50.492;12.134;2023-05-19T07:31:55;98306.63;;;18.18;40.33
20160;BME280;50187;50.492;12.134;2023-05-19T07:34:23;98308.06;;;18.23;40.59
20160;BME280;50187;50.492;12.134;2023-05-19T07:36:50;98303.78;;;18.20;40.51
20160;BME280;50187;50.492;12.134;2023-05-19T07:39:17;98314.28;;;18.23;40.64
20160;BME280;50187;50.492;12.134;2023-05-19T07:41:44;98320.94;;;18.19;40.63
20160;BME280;50187;50.492;12.134;2023-05-19T07:44:17;98302.66;;;18.23;40.49
20160;BME280;50187;50.492;12.134;2023-05-19T07:46:44;98304.81;;;18.29;40.31
20160;BME280;50187;50.492;12.134;2023-05-19T07:49:11;98281.13;;;18.23;40.33
20160;BME280;50187;50.492;12.134;2023-05-19T07:51:37;98305.28;;;18.34;40.20
20160;BME280;50187;50.492;12.134;2023-05-19T07:54:04;98287.56;;;18.31;40.42
20160;BME280;50187;50.492;12.134;2023-05-19T07:56:30;98302.94;;;18.41;40.20
20160;BME280;50187;50.492;12.134;2023-05-19T07:58:57;98268.75;;;18.41;40.16
20160;BME280;50187;50.492;12.134;2023-05-19T08:01:23;98283.53;;;18.47;40.21
20160;BME280;50187;50.492;12.134;2023-05-19T08:03:50;98280.44;;;18.51;40.11
20160;BME280;50187;50.492;12.134;2023-05-19T08:06:17;98297.47;;;18.52;39.89
20160;BME280;50187;50.492;12.134;2023-05-19T08:08:43;98267.97;;;18.50;39.93
20160;BME280;50187;50.492;12.134;2023-05-19T08:11:10;98281.34;;;18.62;39.82
20160;BME280;50187;50.492;12.134;2023-05-19T08:13:37;98273.13;;;18.63;39.74
20160;BME280;50187;50.492;12.134;2023-05-19T08:16:04;98281.50;;;18.70;39.94
20160;BME280;50187;50.492;12.134;2023-05-19T08:18:31;98283.94;;;18.73;39.89
20160;BME280;50187;50.492;12.134;2023-05-19T08:20:57;98267.50;;;18.76;39.72
20160;BME280;50187;50.492;12.134;2023-05-19T08:23:24;98264.78;;;18.76;39.91
20160;BME280;50187;50.492;12.134;2023-05-19T08:25:51;98250.47;;;18.76;39.77
20160;BME280;50187;50.492;12.134;2023-05-19T08:28:17;98258.97;;;18.81;39.75
20160;BME280;50187;50.492;12.134;2023-05-19T08:30:44;98263.59;;;18.90;39.74
20160;BME280;50187;50.492;12.134;2023-05-19T08:33:10;98281.34;;;18.93;39.34
20160;BME280;50187;50.492;12.134;2023-05-19T08:35:37;98260.28;;;18.86;39.52
20160;BME280;50187;50.492;12.134;2023-05-19T08:38:04;98271.72;;;19.00;39.46
20160;BME280;50187;50.492;12.134;2023-05-19T08:40:32;98265.31;;;18.91;39.63
20160;BME280;50187;50.492;12.134;2023-05-19T08:43:00;98261.19;;;18.87;39.61
20160;BME280;50187;50.492;12.134;2023-05-19T08:45:27;98258.47;;;18.87;39.64
20160;BME280;50187;50.492;12.134;2023-05-19T08:47:53;98247.94;;;18.84;39.58
20160;BME280;50187;50.492;12.134;2023-05-19T08:50:23;98253.97;;;18.97;39.43
20160;BME280;50187;50.492;12.134;2023-05-19T08:53:15;98248.56;;;18.97;39.49
20160;BME280;50187;50.492;12.134;2023-05-19T08:56:13;98241.19;;;19.09;39.35
20160;BME280;50187;50.492;12.134;2023-05-19T08:58:41;98245.47;;;19.12;39.56
20160;BME280;50187;50.492;12.134;2023-05-19T09:01:12;98249.59;;;19.16;39.19
20160;BME280;50187;50.492;12.134;2023-05-19T09:03:42;98229.00;;;19.15;39.43
20160;BME280;50187;50.492;12.134;2023-05-19T09:06:09;98256.28;;;19.21;39.16
20160;BME280;50187;50.492;12.134;2023-05-19T09:08:40;98228.91;;;19.16;39.35
20160;BME280;50187;50.492;12.134;2023-05-19T09:11:10;98231.84;;;19.23;39.45
20160;BME280;50187;50.492;12.134;2023-05-19T09:13:37;98233.28;;;19.27;39.16
20160;BME280;50187;50.492;12.134;2023-05-19T09:16:04;98235.13;;;19.27;39.32
20160;BME280;50187;50.492;12.134;2023-05-19T09:18:32;98226.31;;;19.25;39.29
20160;BME280;50187;50.492;12.134;2023-05-19T09:21:01;98222.94;;;19.22;39.10
20160;BME280;50187;50.492;12.134;2023-05-19T09:23:30;98240.53;;;19.27;39.26
20160;BME280;50187;50.492;12.134;2023-05-19T09:26:02;98228.75;;;19.28;39.32
20160;BME280;50187;50.492;12.134;2023-05-19T09:28:30;98241.81;;;19.22;39.18
20160;BME280;50187;50.492;12.134;2023-05-19T09:31:08;98234.28;;;19.26;39.17
20160;BME280;50187;50.492;12.134;2023-05-19T09:33:37;98251.44;;;19.15;39.34
20160;BME280;50187;50.492;12.134;2023-05-19T09:36:05;98218.81;;;19.18;39.38
20160;BME280;50187;50.492;12.134;2023-05-19T09:38:34;98224.19;;;19.18;39.45
20160;BME280;50187;50.492;12.134;2023-05-19T09:41:03;98218.09;;;19.07;39.51
20160;BME280;50187;50.492;12.134;2023-05-19T09:43:31;98220.50;;;19.10;39.46
20160;BME280;50187;50.492;12.134;2023-05-19T09:48:29;98210.56;;;19.10;39.58
20160;BME280;50187;50.492;12.134;2023-05-19T09:50:55;98220.50;;;19.10;39.57
20160;BME280;50187;50.492;12.134;2023-05-19T09:53:23;98204.31;;;19.10;39.43
20160;BME280;50187;50.492;12.134;2023-05-19T09:55:54;98198.50;;;19.04;39.69
20160;BME280;50187;50.492;12.134;2023-05-19T09:58:25;98200.22;;;19.15;39.65
20160;BME280;50187;50.492;12.134;2023-05-19T10:00:52;98196.94;;;19.21;39.61
20160;BME280;50187;50.492;12.134;2023-05-19T10:03:24;98190.13;;;19.27;39.36
20160;BME280;50187;50.492;12.134;2023-05-19T10:05:51;98192.13;;;19.25;39.45
20160;BME280;50187;50.492;12.134;2023-05-19T10:08:18;98183.91;;;19.36;39.14
20160;BME280;50187;50.492;12.134;2023-05-19T10:10:46;98186.16;;;19.41;38.93
20160;BME280;50187;50.492;12.134;2023-05-19T10:13:13;98178.66;;;19.45;39.03
20160;BME280;50187;50.492;12.134;2023-05-19T10:15:42;98184.28;;;19.51;38.87
20160;BME280;50187;50.492;12.134;2023-05-19T10:18:25;98152.22;;;19.29;38.83
20160;BME280;50187;50.492;12.134;2023-05-19T10:20:53;98195.53;;;19.56;39.11
20160;BME280;50187;50.492;12.134;2023-05-19T10:23:20;98187.13;;;19.60;38.81
20160;BME280;50187;50.492;12.134;2023-05-19T10:25:48;98180.75;;;19.61;38.97
20160;BME280;50187;50.492;12.134;2023-05-19T10:28:17;98185.00;;;19.63;38.79
20160;BME280;50187;50.492;12.134;2023-05-19T10:30:48;98154.91;;;19.48;38.89
20160;BME280;50187;50.492;12.134;2023-05-19T10:33:17;98177.31;;;19.59;39.08
20160;BME280;50187;50.492;12.134;2023-05-19T10:36:01;98169.66;;;19.64;38.97
20160;BME280;50187;50.492;12.134;2023-05-19T10:38:41;98168.38;;;19.68;38.86
20160;BME280;50187;50.492;12.134;2023-05-19T10:41:27;98176.78;;;19.65;38.99
20160;BME280;50187;50.492;12.134;2023-05-19T10:46:34;98159.31;;;19.59;38.87
20160;BME280;50187;50.492;12.134;2023-05-19T10:49:00;98167.69;;;19.56;39.02
20160;BME280;50187;50.492;12.134;2023-05-19T10:51:29;98159.03;;;19.52;38.88
20160;BME280;50187;50.492;12.134;2023-05-19T10:54:06;98157.59;;;19.48;39.22
20160;BME280;50187;50.492;12.134;2023-05-19T10:56:38;98158.31;;;19.50;39.16
20160;BME280;50187;50.492;12.134;2023-05-19T10:59:31;98154.63;;;19.42;39.14
20160;BME280;50187;50.492;12.134;2023-05-19T11:02:02;98166.69;;;19.47;39.21
20160;BME280;50187;50.492;12.134;2023-05-19T11:04:46;98154.78;;;19.40;39.11
20160;BME280;50187;50.492;12.134;2023-05-19T11:07:17;98174.38;;;19.42;39.31
20160;BME280;50187;50.492;12.134;2023-05-19T11:09:51;98164.88;;;19.38;39.10
20160;BME280;50187;50.492;12.134;2023-05-19T11:12:22;98157.75;;;19.37;39.22
20160;BME280;50187;50.492;12.134;2023-05-19T11:14:54;98151.81;;;19.33;39.33
20160;BME280;50187;50.492;12.134;2023-05-19T11:17:20;98168.69;;;19.35;39.38
20160;BME280;50187;50.492;12.134;2023-05-19T11:19:54;98153.25;;;19.37;39.20
20160;BME280;50187;50.492;12.134;2023-05-19T11:22:23;98126.97;;;19.20;39.35
20160;BME280;50187;50.492;12.134;2023-05-19T11:24:53;98156.19;;;19.34;39.32
20160;BME280;50187;50.492;12.134;2023-05-19T11:27:34;98141.88;;;19.34;39.35
20160;BME280;50187;50.492;12.134;2023-05-19T11:30:10;98150.66;;;19.36;39.57
20160;BME280;50187;50.492;12.134;2023-05-19T11:32:40;98157.06;;;19.35;39.71
20160;BME280;50187;50.492;12.134;2023-05-19T11:35:09;98155.34;;;19.34;39.60
20160;BME280;50187;50.492;12.134;2023-05-19T11:37:36;98136.31;;;19.35;39.45
20160;BME280;50187;50.492;12.134;2023-05-19T11:40:04;98134.75;;;19.43;39.34
20160;BME280;50187;50.492;12.134;2023-05-19T11:42:35;98147.25;;;19.44;39.37
20160;BME280;50187;50.492;12.134;2023-05-19T11:45:03;98129.66;;;19.39;39.30
20160;BME280;50187;50.492;12.134;2023-05-19T11:47:30;98141.03;;;19.43;39.39
20160;BME280;50187;50.492;12.134;2023-05-19T11:50:17;98132.19;;;19.41;39.41
20160;BME280;50187;50.492;12.134;2023-05-19T11:52:47;98123.13;;;19.42;39.33
20160;BME280;50187;50.492;12.134;2023-05-19T11:55:16;98109.94;;;19.39;39.65
20160;BME280;50187;50.492;12.134;2023-05-19T11:57:56;98132.19;;;19.41;39.64
20160;BME280;50187;50.492;12.134;2023-05-19T12:00:36;98135.63;;;19.43;39.49
20160;BME280;50187;50.492;12.134;2023-05-19T12:03:05;98128.50;;;19.42;39.76
20160;BME280;50187;50.492;12.134;2023-05-19T12:05:32;98137.00;;;19.47;39.61
20160;BME280;50187;50.492;12.134;2023-05-19T12:08:07;98148.53;;;19.49;39.54
20160;BME280;50187;50.492;12.134;2023-05-19T12:10:34;98129.06;;;19.46;39.58
20160;BME280;50187;50.492;12.134;2023-05-19T12:13:01;98135.88;;;19.50;39.32
20160;BME280;50187;50.492;12.134;2023-05-19T12:15:30;98132.75;;;19.54;39.38
20160;BME280;50187;50.492;12.134;2023-05-19T12:18:01;98125.66;;;19.53;39.66
20160;BME280;50187;50.492;12.134;2023-05-19T12:20:31;98109.03;;;19.48;39.38
20160;BME280;50187;50.492;12.134;2023-05-19T12:23:02;98119.28;;;19.54;39.34
20160;BME280;50187;50.492;12.134;2023-05-19T12:25:29;98115.56;;;19.55;39.29
20160;BME280;50187;50.492;12.134;2023-05-19T12:27:58;98119.28;;;19.54;39.36
20160;BME280;50187;50.492;12.134;2023-05-19T12:30:28;98117.13;;;19.58;39.43
20160;BME280;50187;50.492;12.134;2023-05-19T12:32:56;98125.22;;;19.58;39.46
20160;BME280;50187;50.492;12.134;2023-05-19T12:35:28;98116.84;;;19.51;39.38
20160;BME280;50187;50.492;12.134;2023-05-19T12:37:55;98093.00;;;19.47;39.58
20160;BME280;50187;50.492;12.134;2023-05-19T12:40:21;98114.88;;;19.44;39.50
20160;BME280;50187;50.492;12.134;2023-05-19T12:42:49;98096.28;;;19.50;39.69
20160;BME280;50187;50.492;12.134;2023-05-19T12:45:20;98099.66;;;19.52;39.35
20160;BME280;50187;50.492;12.134;2023-05-19T12:47:48;98100.94;;;19.48;39.38
20160;BME280;50187;50.492;12.134;2023-05-19T12:50:15;98106.50;;;19.47;39.46
20160;BME280;50187;50.492;12.134;2023-05-19T12:52:44;98105.81;;;19.45;39.57
20160;BME280;50187;50.492;12.134;2023-05-19T12:55:11;98119.28;;;19.45;39.46
20160;BME280;50187;50.492;12.134;2023-05-19T12:57:41;98092.56;;;19.42;39.59
20160;BME280;50187;50.492;12.134;2023-05-19T13:00:15;98094.44;;;19.41;39.48
20160;BME280;50187;50.492;12.134;2023-05-19T13:03:01;98086.06;;;19.34;39.74
20160;BME280;50187;50.492;12.134;2023-05-19T13:05:37;98095.16;;;19.33;39.87
20160;BME280;50187;50.492;12.134;2023-05-19T13:08:08;98096.72;;;19.26;39.82
20160;BME280;50187;50.492;12.134;2023-05-19T13:10:36;98089.88;;;19.32;39.99
20160;BME280;50187;50.492;12.134;2023-05-19T13:13:03;98090.19;;;19.29;39.76
20160;BME280;50187;50.492;12.134;2023-05-19T13:15:32;98091.06;;;19.29;40.03
20160;BME280;50187;50.492;12.134;2023-05-19T13:18:07;98089.34;;;19.28;39.79
20160;BME280;50187;50.492;12.134;2023-05-19T13:20:35;98081.69;;;19.24;39.97
20160;BME280;50187;50.492;12.134;2023-05-19T13:23:03;98078.84;;;19.25;39.82